sensor_id;sensor_type;location;lat;lon;timestamp;temperature;humidity
20442;DHT22;10380;52.102;20.614;2023-08-06T00:01:49;18.90;99.90
20442;DHT22;10380;52.102;20.614;2023-08-06T00:04:16;18.80;99.90
20442;DHT22;10380;52.102;20.614;2023-08-06T00:06:43;18.80;99.90
20442;DHT22;10380;52.102;20.614;2023-08-06T00:09:10;18.70;99.90
20442;DHT22;10380;52.102;20.614;2023-08-06T00:11:37;18.70;99.90
20442;DHT22;10380;52.102;20.614;2023-08-06T00:14:04;18.70;99.90
20442;DHT22;10380;52.102;20.614;2023-08-06T00:16:31;18.70;99.90
20442;DHT22;10380;52.102;20.614;2023-08-06T00:18:57;18.70;99.90
20442;DHT22;10380;52.102;20.614;2023-08-06T00:21:24;18.70;99.90
20442;DHT22;10380;52.102;20.614;2023-08-06T00:23:51;18.70;99.90
20442;DHT22;10380;52.102;20.614;2023-08-06T00:26:19;18.70;99.90
20442;DHT22;10380;52.102;20.614;2023-08-06T00:28:46;18.80;99.90
20442;DHT22;10380;52.102;20.614;2023-08-06T00:31:13;18.80;99.90
20442;DHT22;10380;52.102;20.614;2023-08-06T00:33:40;18.80;99.90
20442;DHT22;10380;52.102;20.614;2023-08-06T00:36:07;18.80;99.90
20442;DHT22;10380;52.102;20.614;2023-08-06T00:38:34;18.80;99.90
20442;DHT22;10380;52.102;20.614;2023-08-06T00:41:01;18.80;99.90
20442;DHT22;10380;52.102;20.614;2023-08-06T00:43:28;18.90;99.90
20442;DHT22;10380;52.102;20.614;2023-08-06T00:45:55;18.90;99.90
20442;DHT22;10380;52.102;20.614;2023-08-06T00:48:22;18.80;99.90
20442;DHT22;10380;52.102;20.614;2023-08-06T00:50:49;18.80;99.90
20442;DHT22;10380;52.102;20.614;2023-08-06T00:53:16;18.90;99.90
20442;DHT22;10380;52.102;20.614;2023-08-06T00:55:44;18.80;99.90
20442;DHT22;10380;52.102;20.614;2023-08-06T00:58:13;18.90;99.90
20442;DHT22;10380;52.102;20.614;2023-08-06T01:00:41;18.90;99.90
20442;DHT22;10380;52.102;20.614;2023-08-06T01:03:08;18.90;99.90
20442;DHT22;10380;52.102;20.614;2023-08-06T01:05:35;18.90;99.90
20442;DHT22;10380;52.102;20.614;2023-08-06T01:13:43;18.90;99.90
20442;DHT22;10380;52.102;20.614;2023-08-06T01:16:18;18.90;99.90
20442;DHT22;10380;52.102;20.614;2023-08-06T01:18:47;18.90;99.90
20442;DHT22;10380;52.102;20.614;2023-08-06T01:21:17;18.90;99.90
20442;DHT22;10380;52.102;20.614;2023-08-06T01:23:45;18.90;99.90
20442;DHT22;10380;52.102;20.614;2023-08-06T01:26:42;18.90;99.90
20442;DHT22;10380;52.102;20.614;2023-08-06T01:29:17;19.00;99.90
20442;DHT22;10380;52.102;20.614;2023-08-06T01:31:48;19.00;99.90
20442;DHT22;10380;52.102;20.614;2023-08-06T01:34:21;19.00;99.90
20442;DHT22;10380;52.102;20.614;2023-08-06T01:36:50;19.00;99.90
20442;DHT22;10380;52.102;20.614;2023-08-06T01:39:17;19.00;99.90
20442;DHT22;10380;52.102;20.614;2023-08-06T01:41:48;19.00;99.90
20442;DHT22;10380;52.102;20.614;2023-08-06T01:44:16;19.00;99.90
20442;DHT22;10380;52.102;20.614;2023-08-06T01:46:43;19.00;99.90
20442;DHT22;10380;52.102;20.614;2023-08-06T01:49:10;19.00;99.90
20442;DHT22;10380;52.102;20.614;2023-08-06T01:51:37;19.10;99.90
20442;DHT22;10380;52.102;20.614;2023-08-06T01:54:04;19.00;99.90
20442;DHT22;10380;52.102;20.614;2023-08-06T01:56:31;19.10;99.90
20442;DHT22;10380;52.102;20.614;2023-08-06T01:58:58;19.10;99.90
20442;DHT22;10380;52.102;20.614;2023-08-06T02:01:27;19.10;99.90
20442;DHT22;10380;52.102;20.614;2023-08-06T02:03:54;19.10;99.90
20442;DHT22;10380;52.102;20.614;2023-08-06T02:06:21;19.10;99.90
20442;DHT22;10380;52.102;20.614;2023-08-06T02:08:47;19.10;99.90
20442;DHT22;10380;52.102;20.614;2023-08-06T02:11:14;19.20;99.90
20442;DHT22;10380;52.102;20.614;2023-08-06T02:13:41;19.20;99.90
20442;DHT22;10380;52.102;20.614;2023-08-06T02:16:08;19.20;99.90
20442;DHT22;10380;52.102;20.614;2023-08-06T02:18:35;19.20;99.90
20442;DHT22;10380;52.102;20.614;2023-08-06T02:21:02;19.20;99.90
20442;DHT22;10380;52.102;20.614;2023-08-06T02:23:29;19.20;99.90
20442;DHT22;10380;52.102;20.614;2023-08-06T02:26:03;19.20;99.90
20442;DHT22;10380;52.102;20.614;2023-08-06T02:28:31;19.20;99.90
20442;DHT22;10380;52.102;20.614;2023-08-06T02:30:59;19.20;99.90
20442;DHT22;10380;52.102;20.614;2023-08-06T02:33:26;19.30;99.90
20442;DHT22;10380;52.102;20.614;2023-08-06T02:36:03;19.30;99.90
20442;DHT22;10380;52.102;20.614;2023-08-06T02:38:31;19.30;99.90
20442;DHT22;10380;52.102;20.614;2023-08-06T02:41:02;19.30;99.90
20442;DHT22;10380;52.102;20.614;2023-08-06T02:43:30;19.30;99.90
20442;DHT22;10380;52.102;20.614;2023-08-06T02:45:58;19.30;99.90
20442;DHT22;10380;52.102;20.614;2023-08-06T02:48:26;19.30;99.90
20442;DHT22;10380;52.102;20.614;2023-08-06T02:50:53;19.30;99.90
20442;DHT22;10380;52.102;20.614;2023-08-06T02:53:23;19.30;99.90
20442;DHT22;10380;52.102;20.614;2023-08-06T02:55:50;19.30;99.90
20442;DHT22;10380;52.102;20.614;2023-08-06T02:58:17;19.40;99.90
20442;DHT22;10380;52.102;20.614;2023-08-06T03:01:01;19.40;99.90
20442;DHT22;10380;52.102;20.614;2023-08-06T03:03:31;19.40;99.90
20442;DHT22;10380;52.102;20.614;2023-08-06T03:05:58;19.30;99.90
20442;DHT22;10380;52.102;20.614;2023-08-06T03:08:26;19.40;99.90
20442;DHT22;10380;52.102;20.614;2023-08-06T03:10:53;19.30;99.90
20442;DHT22;10380;52.102;20.614;2023-08-06T03:13:20;19.30;99.90
20442;DHT22;10380;52.102;20.614;2023-08-06T03:15:58;19.30;99.90
20442;DHT22;10380;52.102;20.614;2023-08-06T03:18:25;19.30;99.90
20442;DHT22;10380;52.102;20.614;2023-08-06T03:20:53;19.30;99.90
20442;DHT22;10380;52.102;20.614;2023-08-06T03:23:20;19.30;99.90
20442;DHT22;10380;52.102;20.614;2023-08-06T03:25:47;19.30;99.90
20442;DHT22;10380;52.102;20.614;2023-08-06T03:28:14;19.30;99.90
20442;DHT22;10380;52.102;20.614;2023-08-06T03:30:41;19.30;99.90
20442;DHT22;10380;52.102;20.614;2023-08-06T03:33:08;19.30;99.90
20442;DHT22;10380;52.102;20.614;2023-08-06T03:35:35;19.30;99.90
20442;DHT22;10380;52.102;20.614;2023-08-06T03:38:02;19.30;99.90
20442;DHT22;10380;52.102;20.614;2023-08-06T03:40:29;19.40;99.90
20442;DHT22;10380;52.102;20.614;2023-08-06T03:42:56;19.40;99.90
20442;DHT22;10380;52.102;20.614;2023-08-06T03:45:23;19.40;99.90
20442;DHT22;10380;52.102;20.614;2023-08-06T03:47:50;19.40;99.90
20442;DHT22;10380;52.102;20.614;2023-08-06T03:50:17;19.40;99.90
20442;DHT22;10380;52.102;20.614;2023-08-06T03:52:44;19.40;99.90
20442;DHT22;10380;52.102;20.614;2023-08-06T03:55:10;19.40;99.90
20442;DHT22;10380;52.102;20.614;2023-08-06T03:57:37;19.40;99.90
20442;DHT22;10380;52.102;20.614;2023-08-06T04:00:05;19.40;99.90
20442;DHT22;10380;52.102;20.614;2023-08-06T04:02:32;19.50;99.90
20442;DHT22;10380;52.102;20.614;2023-08-06T04:05:00;19.40;99.90
20442;DHT22;10380;52.102;20.614;2023-08-06T04:07:26;19.50;99.90
20442;DHT22;10380;52.102;20.614;2023-08-06T04:10:02;19.50;99.90
20442;DHT22;10380;52.102;20.614;2023-08-06T04:12:30;19.50;99.90
20442;DHT22;10380;52.102;20.614;2023-08-06T04:14:58;19.50;99.90
20442;DHT22;10380;52.102;20.614;2023-08-06T04:17:25;19.50;99.90
20442;DHT22;10380;52.102;20.614;2023-08-06T04:19:54;19.60;99.90
20442;DHT22;10380;52.102;20.614;2023-08-06T04:22:21;19.60;99.90
20442;DHT22;10380;52.102;20.614;2023-08-06T04:24:48;19.60;99.90
20442;DHT22;10380;52.102;20.614;2023-08-06T04:27:16;19.60;99.90
20442;DHT22;10380;52.102;20.614;2023-08-06T04:29:43;19.70;99.90
20442;DHT22;10380;52.102;20.614;2023-08-06T04:32:10;19.70;99.90
20442;DHT22;10380;52.102;20.614;2023-08-06T04:34:37;19.70;99.90
20442;DHT22;10380;52.102;20.614;2023-08-06T04:37:04;19.70;99.90
20442;DHT22;10380;52.102;20.614;2023-08-06T04:39:31;19.80;99.90
20442;DHT22;10380;52.102;20.614;2023-08-06T04:41:58;19.90;99.90
20442;DHT22;10380;52.102;20.614;2023-08-06T04:44:26;19.90;99.90
20442;DHT22;10380;52.102;20.614;2023-08-06T04:46:53;19.90;99.90
20442;DHT22;10380;52.102;20.614;2023-08-06T04:49:20;19.90;99.90
20442;DHT22;10380;52.102;20.614;2023-08-06T04:51:47;20.00;99.90
20442;DHT22;10380;52.102;20.614;2023-08-06T04:54:15;20.00;99.90
20442;DHT22;10380;52.102;20.614;2023-08-06T04:56:41;20.00;99.90
20442;DHT22;10380;52.102;20.614;2023-08-06T04:59:09;20.00;99.90
20442;DHT22;10380;52.102;20.614;2023-08-06T05:01:36;20.10;99.90
20442;DHT22;10380;52.102;20.614;2023-08-06T05:04:03;20.20;99.90
20442;DHT22;10380;52.102;20.614;2023-08-06T05:06:30;20.20;99.90
20442;DHT22;10380;52.102;20.614;2023-08-06T05:08:57;20.20;99.90
20442;DHT22;10380;52.102;20.614;2023-08-06T05:11:24;20.30;99.90
20442;DHT22;10380;52.102;20.614;2023-08-06T05:13:51;20.40;99.90
20442;DHT22;10380;52.102;20.614;2023-08-06T05:16:18;20.40;99.90
20442;DHT22;10380;52.102;20.614;2023-08-06T05:18:45;20.50;99.90
20442;DHT22;10380;52.102;20.614;2023-08-06T05:21:12;20.60;99.90
20442;DHT22;10380;52.102;20.614;2023-08-06T05:23:39;20.70;99.90
20442;DHT22;10380;52.102;20.614;2023-08-06T05:26:06;20.70;99.90
20442;DHT22;10380;52.102;20.614;2023-08-06T05:28:33;20.80;99.90
20442;DHT22;10380;52.102;20.614;2023-08-06T05:31:06;20.80;99.90
20442;DHT22;10380;52.102;20.614;2023-08-06T05:33:33;20.90;99.90
20442;DHT22;10380;52.102;20.614;2023-08-06T05:36:00;21.00;99.90
20442;DHT22;10380;52.102;20.614;2023-08-06T05:38:27;21.00;99.90
20442;DHT22;10380;52.102;20.614;2023-08-06T05:40:54;21.00;99.90
20442;DHT22;10380;52.102;20.614;2023-08-06T05:43:22;21.10;99.90
20442;DHT22;10380;52.102;20.614;2023-08-06T05:45:50;21.10;99.90
20442;DHT22;10380;52.102;20.614;2023-08-06T05:48:17;21.20;99.90
20442;DHT22;10380;52.102;20.614;2023-08-06T05:50:44;21.30;99.90
20442;DHT22;10380;52.102;20.614;2023-08-06T05:53:10;21.40;99.90
20442;DHT22;10380;52.102;20.614;2023-08-06T05:55:39;21.40;99.90
20442;DHT22;10380;52.102;20.614;2023-08-06T05:58:06;21.50;99.90
20442;DHT22;10380;52.102;20.614;2023-08-06T06:00:33;21.60;99.90
20442;DHT22;10380;52.102;20.614;2023-08-06T06:03:01;21.70;99.90
20442;DHT22;10380;52.102;20.614;2023-08-06T06:05:29;21.80;99.90
20442;DHT22;10380;52.102;20.614;2023-08-06T06:07:56;21.90;99.90
20442;DHT22;10380;52.102;20.614;2023-08-06T06:10:23;21.90;99.90
20442;DHT22;10380;52.102;20.614;2023-08-06T06:12:50;22.10;99.90
20442;DHT22;10380;52.102;20.614;2023-08-06T06:15:17;22.20;99.90
20442;DHT22;10380;52.102;20.614;2023-08-06T06:17:44;22.30;99.90
20442;DHT22;10380;52.102;20.614;2023-08-06T06:20:11;22.50;99.90
20442;DHT22;10380;52.102;20.614;2023-08-06T06:22:38;22.60;99.90
20442;DHT22;10380;52.102;20.614;2023-08-06T06:25:06;22.70;99.90
20442;DHT22;10380;52.102;20.614;2023-08-06T06:27:33;22.70;99.90
20442;DHT22;10380;52.102;20.614;2023-08-06T06:30:00;22.80;99.90
20442;DHT22;10380;52.102;20.614;2023-08-06T06:32:27;22.80;99.90
20442;DHT22;10380;52.102;20.614;2023-08-06T06:34:54;22.80;99.90
20442;DHT22;10380;52.102;20.614;2023-08-06T06:37:21;22.90;99.90
20442;DHT22;10380;52.102;20.614;2023-08-06T06:39:47;22.90;99.90
20442;DHT22;10380;52.102;20.614;2023-08-06T06:42:14;23.00;99.90
20442;DHT22;10380;52.102;20.614;2023-08-06T06:44:42;23.10;99.90
20442;DHT22;10380;52.102;20.614;2023-08-06T06:47:09;23.20;99.90
20442;DHT22;10380;52.102;20.614;2023-08-06T06:49:36;23.20;99.90
20442;DHT22;10380;52.102;20.614;2023-08-06T06:52:03;23.30;99.90
20442;DHT22;10380;52.102;20.614;2023-08-06T06:54:30;23.30;99.90
20442;DHT22;10380;52.102;20.614;2023-08-06T06:56:57;23.30;99.90
20442;DHT22;10380;52.102;20.614;2023-08-06T06:59:24;23.30;99.90
20442;DHT22;10380;52.102;20.614;2023-08-06T07:01:50;23.40;99.90
20442;DHT22;10380;52.102;20.614;2023-08-06T07:04:18;23.50;99.90
20442;DHT22;10380;52.102;20.614;2023-08-06T07:06:45;23.50;99.90
20442;DHT22;10380;52.102;20.614;2023-08-06T07:09:12;23.60;99.90
20442;DHT22;10380;52.102;20.614;2023-08-06T07:11:39;23.70;99.90
20442;DHT22;10380;52.102;20.614;2023-08-06T07:14:07;23.70;99.90
20442;DHT22;10380;52.102;20.614;2023-08-06T07:16:34;23.70;99.90
20442;DHT22;10380;52.102;20.614;2023-08-06T07:19:01;23.70;99.90
20442;DHT22;10380;52.102;20.614;2023-08-06T07:21:28;23.70;99.90
20442;DHT22;10380;52.102;20.614;2023-08-06T07:23:55;23.70;99.90
20442;DHT22;10380;52.102;20.614;2023-08-06T07:26:24;23.80;99.90
20442;DHT22;10380;52.102;20.614;2023-08-06T07:28:51;23.90;99.90
20442;DHT22;10380;52.102;20.614;2023-08-06T07:31:18;23.90;99.90
20442;DHT22;10380;52.102;20.614;2023-08-06T07:33:45;24.00;99.90
20442;DHT22;10380;52.102;20.614;2023-08-06T07:36:14;24.10;99.90
20442;DHT22;10380;52.102;20.614;2023-08-06T07:38:41;24.10;99.90
20442;DHT22;10380;52.102;20.614;2023-08-06T07:41:09;24.20;99.90
20442;DHT22;10380;52.102;20.614;2023-08-06T07:43:36;24.30;99.90
20442;DHT22;10380;52.102;20.614;2023-08-06T07:46:03;24.30;99.90
20442;DHT22;10380;52.102;20.614;2023-08-06T07:48:31;24.30;99.90
20442;DHT22;10380;52.102;20.614;2023-08-06T07:50:58;24.40;99.90
20442;DHT22;10380;52.102;20.614;2023-08-06T07:53:25;24.40;99.90
20442;DHT22;10380;52.102;20.614;2023-08-06T07:55:56;24.60;99.90
20442;DHT22;10380;52.102;20.614;2023-08-06T07:58:24;24.70;99.90
20442;DHT22;10380;52.102;20.614;2023-08-06T08:00:52;24.90;99.90
20442;DHT22;10380;52.102;20.614;2023-08-06T08:03:19;25.00;99.90
20442;DHT22;10380;52.102;20.614;2023-08-06T08:05:46;25.20;99.90
20442;DHT22;10380;52.102;20.614;2023-08-06T08:08:13;25.30;99.90
20442;DHT22;10380;52.102;20.614;2023-08-06T08:10:41;25.50;99.90
20442;DHT22;10380;52.102;20.614;2023-08-06T08:13:08;25.60;99.90
20442;DHT22;10380;52.102;20.614;2023-08-06T08:15:35;25.70;99.90
20442;DHT22;10380;52.102;20.614;2023-08-06T08:18:02;25.80;99.90
20442;DHT22;10380;52.102;20.614;2023-08-06T08:20:29;25.90;99.90
20442;DHT22;10380;52.102;20.614;2023-08-06T08:23:00;26.00;99.90
20442;DHT22;10380;52.102;20.614;2023-08-06T08:25:27;26.00;99.90
20442;DHT22;10380;52.102;20.614;2023-08-06T08:27:57;26.10;99.90
20442;DHT22;10380;52.102;20.614;2023-08-06T08:30:24;26.30;99.90
20442;DHT22;10380;52.102;20.614;2023-08-06T08:32:52;26.40;99.90
20442;DHT22;10380;52.102;20.614;2023-08-06T08:35:19;26.40;99.90
20442;DHT22;10380;52.102;20.614;2023-08-06T08:37:46;26.50;99.90
20442;DHT22;10380;52.102;20.614;2023-08-06T08:40:15;26.50;99.90
20442;DHT22;10380;52.102;20.614;2023-08-06T08:42:42;26.50;99.90
20442;DHT22;10380;52.102;20.614;2023-08-06T08:45:13;26.40;99.90
20442;DHT22;10380;52.102;20.614;2023-08-06T08:47:44;26.40;99.90
20442;DHT22;10380;52.102;20.614;2023-08-06T08:50:14;26.30;99.90
20442;DHT22;10380;52.102;20.614;2023-08-06T08:52:42;26.40;99.90
20442;DHT22;10380;52.102;20.614;2023-08-06T08:55:14;26.40;99.90
20442;DHT22;10380;52.102;20.614;2023-08-06T08:57:41;26.40;99.90
20442;DHT22;10380;52.102;20.614;2023-08-06T09:00:09;26.50;99.90
20442;DHT22;10380;52.102;20.614;2023-08-06T09:02:37;26.50;99.90
20442;DHT22;10380;52.102;20.614;2023-08-06T09:05:05;26.60;99.90
20442;DHT22;10380;52.102;20.614;2023-08-06T09:07:41;26.70;99.90
20442;DHT22;10380;52.102;20.614;2023-08-06T09:10:11;26.70;99.90
20442;DHT22;10380;52.102;20.614;2023-08-06T09:12:38;26.90;99.90
20442;DHT22;10380;52.102;20.614;2023-08-06T09:15:05;27.00;99.90
20442;DHT22;10380;52.102;20.614;2023-08-06T09:17:33;27.10;99.90
20442;DHT22;10380;52.102;20.614;2023-08-06T09:20:10;27.20;99.90
20442;DHT22;10380;52.102;20.614;2023-08-06T09:22:38;27.20;99.90
20442;DHT22;10380;52.102;20.614;2023-08-06T09:25:07;27.30;99.90
20442;DHT22;10380;52.102;20.614;2023-08-06T09:27:37;27.30;99.90
20442;DHT22;10380;52.102;20.614;2023-08-06T09:30:06;27.50;99.90
20442;DHT22;10380;52.102;20.614;2023-08-06T09:32:51;27.70;99.90
20442;DHT22;10380;52.102;20.614;2023-08-06T09:35:18;27.80;99.90
20442;DHT22;10380;52.102;20.614;2023-08-06T09:37:45;28.00;99.90
20442;DHT22;10380;52.102;20.614;2023-08-06T09:40:28;28.00;99.90
20442;DHT22;10380;52.102;20.614;2023-08-06T09:42:56;28.10;99.90
20442;DHT22;10380;52.102;20.614;2023-08-06T09:45:36;28.10;99.90
20442;DHT22;10380;52.102;20.614;2023-08-06T09:48:05;28.20;99.90
20442;DHT22;10380;52.102;20.614;2023-08-06T09:50:34;28.30;99.90
20442;DHT22;10380;52.102;20.614;2023-08-06T09:53:04;28.30;99.90
20442;DHT22;10380;52.102;20.614;2023-08-06T09:55:32;28.40;99.90
20442;DHT22;10380;52.102;20.614;2023-08-06T09:58:00;28.40;99.90
20442;DHT22;10380;52.102;20.614;2023-08-06T10:00:27;28.40;99.90
20442;DHT22;10380;52.102;20.614;2023-08-06T10:03:00;28.40;99.90
20442;DHT22;10380;52.102;20.614;2023-08-06T10:05:28;28.40;99.90
20442;DHT22;10380;52.102;20.614;2023-08-06T10:07:57;28.50;99.90
20442;DHT22;10380;52.102;20.614;2023-08-06T10:10:25;28.50;99.90
20442;DHT22;10380;52.102;20.614;2023-08-06T10:12:56;28.60;99.90
20442;DHT22;10380;52.102;20.614;2023-08-06T10:15:26;28.60;99.90
20442;DHT22;10380;52.102;20.614;2023-08-06T10:17:56;28.60;99.90
20442;DHT22;10380;52.102;20.614;2023-08-06T10:20:24;28.50;99.90
20442;DHT22;10380;52.102;20.614;2023-08-06T10:23:02;28.50;99.90
20442;DHT22;10380;52.102;20.614;2023-08-06T10:25:34;28.40;99.90
20442;DHT22;10380;52.102;20.614;2023-08-06T10:28:11;28.40;99.90
20442;DHT22;10380;52.102;20.614;2023-08-06T10:30:46;28.50;99.90
20442;DHT22;10380;52.102;20.614;2023-08-06T10:33:13;28.60;99.90
20442;DHT22;10380;52.102;20.614;2023-08-06T10:35:47;28.60;99.90
20442;DHT22;10380;52.102;20.614;2023-08-06T10:45:56;28.50;99.90
20442;DHT22;10380;52.102;20.614;2023-08-06T10:48:49;28.30;99.90
20442;DHT22;10380;52.102;20.614;2023-08-06T10:51:17;28.30;99.90
20442;DHT22;10380;52.102;20.614;2023-08-06T10:53:49;28.30;99.90
20442;DHT22;10380;52.102;20.614;2023-08-06T10:56:20;28.40;99.90
20442;DHT22;10380;52.102;20.614;2023-08-06T10:58:50;28.50;99.90
20442;DHT22;10380;52.102;20.614;2023-08-06T11:01:18;28.50;99.90
20442;DHT22;10380;52.102;20.614;2023-08-06T11:03:46;28.50;99.90
20442;DHT22;10380;52.102;20.614;2023-08-06T11:06:19;28.40;99.90
20442;DHT22;10380;52.102;20.614;2023-08-06T11:08:53;28.40;99.90
20442;DHT22;10380;52.102;20.614;2023-08-06T11:11:23;28.40;99.90
20442;DHT22;10380;52.102;20.614;2023-08-06T11:13:51;28.50;99.90
20442;DHT22;10380;52.102;20.614;2023-08-06T11:16:21;28.60;99.90
20442;DHT22;10380;52.102;20.614;2023-08-06T11:18:52;28.80;99.90
20442;DHT22;10380;52.102;20.614;2023-08-06T11:21:21;28.90;99.90
20442;DHT22;10380;52.102;20.614;2023-08-06T11:23:49;29.00;99.90
20442;DHT22;10380;52.102;20.614;2023-08-06T11:26:19;29.20;99.90
20442;DHT22;10380;52.102;20.614;2023-08-06T11:28:48;29.20;99.90
20442;DHT22;10380;52.102;20.614;2023-08-06T11:31:22;29.20;99.90
20442;DHT22;10380;52.102;20.614;2023-08-06T11:33:53;29.30;99.90
20442;DHT22;10380;52.102;20.614;2023-08-06T11:36:34;29.30;99.90
20442;DHT22;10380;52.102;20.614;2023-08-06T11:39:03;29.50;99.90
20442;DHT22;10380;52.102;20.614;2023-08-06T11:41:33;29.60;99.90
20442;DHT22;10380;52.102;20.614;2023-08-06T11:44:01;29.90;99.90
20442;DHT22;10380;52.102;20.614;2023-08-06T11:46:29;30.10;99.90
20442;DHT22;10380;52.102;20.614;2023-08-06T11:48:58;30.50;99.90
20442;DHT22;10380;52.102;20.614;2023-08-06T11:51:26;31.00;99.90
20442;DHT22;10380;52.102;20.614;2023-08-06T11:53:56;31.80;99.90
20442;DHT22;10380;52.102;20.614;2023-08-06T11:56:27;32.60;99.90
20442;DHT22;10380;52.102;20.614;2023-08-06T11:58:54;33.60;99.90
20442;DHT22;10380;52.102;20.614;2023-08-06T12:01:22;34.70;99.90
20442;DHT22;10380;52.102;20.614;2023-08-06T12:03:49;35.50;99.90
20442;DHT22;10380;52.102;20.614;2023-08-06T12:06:16;35.90;99.90
20442;DHT22;10380;52.102;20.614;2023-08-06T12:08:43;36.00;99.90
20442;DHT22;10380;52.102;20.614;2023-08-06T12:11:10;35.60;99.90
20442;DHT22;10380;52.102;20.614;2023-08-06T12:13:37;34.90;99.90
20442;DHT22;10380;52.102;20.614;2023-08-06T12:16:04;34.10;99.90
20442;DHT22;10380;52.102;20.614;2023-08-06T12:18:31;33.40;99.90
20442;DHT22;10380;52.102;20.614;2023-08-06T12:20:58;32.70;99.90
20442;DHT22;10380;52.102;20.614;2023-08-06T12:23:25;32.00;99.90
20442;DHT22;10380;52.102;20.614;2023-08-06T12:25:52;31.40;99.90
20442;DHT22;10380;52.102;20.614;2023-08-06T12:28:19;30.90;99.90
20442;DHT22;10380;52.102;20.614;2023-08-06T12:30:49;30.40;99.90
20442;DHT22;10380;52.102;20.614;2023-08-06T12:33:17;30.10;99.90
20442;DHT22;10380;52.102;20.614;2023-08-06T12:35:44;29.70;99.90
20442;DHT22;10380;52.102;20.614;2023-08-06T12:38:11;29.30;99.90
20442;DHT22;10380;52.102;20.614;2023-08-06T12:40:38;28.50;99.90
20442;DHT22;10380;52.102;20.614;2023-08-06T12:43:09;27.60;99.90
20442;DHT22;10380;52.102;20.614;2023-08-06T12:45:36;26.60;99.90
20442;DHT22;10380;52.102;20.614;2023-08-06T12:48:04;25.80;99.90
20442;DHT22;10380;52.102;20.614;2023-08-06T12:50:31;25.10;99.90
20442;DHT22;10380;52.102;20.614;2023-08-06T12:53:00;24.60;99.90
20442;DHT22;10380;52.102;20.614;2023-08-06T12:55:27;24.20;99.90
20442;DHT22;10380;52.102;20.614;2023-08-06T12:57:59;24.10;99.90
20442;DHT22;10380;52.102;20.614;2023-08-06T13:00:26;24.60;99.90
20442;DHT22;10380;52.102;20.614;2023-08-06T13:02:53;25.50;99.90
20442;DHT22;10380;52.102;20.614;2023-08-06T13:05:21;26.70;99.90
20442;DHT22;10380;52.102;20.614;2023-08-06T13:07:48;28.00;99.90
20442;DHT22;10380;52.102;20.614;2023-08-06T13:10:15;29.20;99.90
20442;DHT22;10380;52.102;20.614;2023-08-06T13:12:43;30.20;99.90
20442;DHT22;10380;52.102;20.614;2023-08-06T13:15:10;30.80;99.90
20442;DHT22;10380;52.102;20.614;2023-08-06T13:17:37;31.00;99.90
20442;DHT22;10380;52.102;20.614;2023-08-06T13:20:05;31.20;99.90
20442;DHT22;10380;52.102;20.614;2023-08-06T13:22:33;31.60;99.90
20442;DHT22;10380;52.102;20.614;2023-08-06T13:24:59;32.00;99.90
20442;DHT22;10380;52.102;20.614;2023-08-06T13:27:26;32.20;99.90
20442;DHT22;10380;52.102;20.614;2023-08-06T13:29:53;32.10;99.90
20442;DHT22;10380;52.102;20.614;2023-08-06T13:32:20;32.00;99.90
20442;DHT22;10380;52.102;20.614;2023-08-06T13:34:47;31.60;99.90
20442;DHT22;10380;52.102;20.614;2023-08-06T13:37:14;31.30;99.90
20442;DHT22;10380;52.102;20.614;2023-08-06T13:39:41;30.90;99.90
20442;DHT22;10380;52.102;20.614;2023-08-06T13:42:08;30.60;99.90
20442;DHT22;10380;52.102;20.614;2023-08-06T13:44:35;30.30;99.90
20442;DHT22;10380;52.102;20.614;2023-08-06T13:47:03;30.00;99.90
20442;DHT22;10380;52.102;20.614;2023-08-06T13:49:30;29.80;99.90
20442;DHT22;10380;52.102;20.614;2023-08-06T13:52:14;29.70;99.90
20442;DHT22;10380;52.102;20.614;2023-08-06T13:54:48;29.40;99.90
20442;DHT22;10380;52.102;20.614;2023-08-06T13:57:15;29.20;99.90
20442;DHT22;10380;52.102;20.614;2023-08-06T13:59:44;28.90;99.90
20442;DHT22;10380;52.102;20.614;2023-08-06T14:02:11;28.60;99.90
20442;DHT22;10380;52.102;20.614;2023-08-06T14:04:39;28.30;99.90
20442;DHT22;10380;52.102;20.614;2023-08-06T14:07:06;27.90;99.90
20442;DHT22;10380;52.102;20.614;2023-08-06T14:09:34;27.40;99.90
20442;DHT22;10380;52.102;20.614;2023-08-06T14:12:01;27.00;99.90
20442;DHT22;10380;52.102;20.614;2023-08-06T14:14:28;26.80;99.90
20442;DHT22;10380;52.102;20.614;2023-08-06T14:16:55;26.80;99.90
20442;DHT22;10380;52.102;20.614;2023-08-06T14:19:23;27.00;99.90
20442;DHT22;10380;52.102;20.614;2023-08-06T14:21:50;27.10;99.90
20442;DHT22;10380;52.102;20.614;2023-08-06T14:24:18;27.10;99.90
20442;DHT22;10380;52.102;20.614;2023-08-06T14:26:45;27.00;99.90
20442;DHT22;10380;52.102;20.614;2023-08-06T14:29:12;26.80;99.90
20442;DHT22;10380;52.102;20.614;2023-08-06T14:31:40;26.80;99.90
20442;DHT22;10380;52.102;20.614;2023-08-06T14:34:07;26.70;99.90
20442;DHT22;10380;52.102;20.614;2023-08-06T14:36:34;26.80;99.90
20442;DHT22;10380;52.102;20.614;2023-08-06T14:39:01;27.00;99.90
20442;DHT22;10380;52.102;20.614;2023-08-06T14:41:28;27.30;99.90
20442;DHT22;10380;52.102;20.614;2023-08-06T14:43:55;27.60;99.90
20442;DHT22;10380;52.102;20.614;2023-08-06T14:46:22;27.90;99.90
20442;DHT22;10380;52.102;20.614;2023-08-06T14:56:14;28.70;99.90
20442;DHT22;10380;52.102;20.614;2023-08-06T15:03:36;28.60;99.90
20442;DHT22;10380;52.102;20.614;2023-08-06T15:06:03;28.60;99.90
20442;DHT22;10380;52.102;20.614;2023-08-06T15:10:57;28.60;99.90
20442;DHT22;10380;52.102;20.614;2023-08-06T15:13:25;28.50;99.90
20442;DHT22;10380;52.102;20.614;2023-08-06T15:18:19;28.70;99.90
20442;DHT22;10380;52.102;20.614;2023-08-06T15:20:46;28.70;99.90
20442;DHT22;10380;52.102;20.614;2023-08-06T15:23:13;28.80;99.90
20442;DHT22;10380;52.102;20.614;2023-08-06T15:28:08;28.70;99.90
20442;DHT22;10380;52.102;20.614;2023-08-06T15:33:03;28.40;99.90
20442;DHT22;10380;52.102;20.614;2023-08-06T15:37:57;28.10;99.90
20442;DHT22;10380;52.102;20.614;2023-08-06T15:42:51;27.90;99.90
20442;DHT22;10380;52.102;20.614;2023-08-06T15:45:19;28.10;99.90
20442;DHT22;10380;52.102;20.614;2023-08-06T15:47:47;27.80;99.90
20442;DHT22;10380;52.102;20.614;2023-08-06T15:50:13;27.70;99.90
20442;DHT22;10380;52.102;20.614;2023-08-06T15:52:40;27.50;99.90
20442;DHT22;10380;52.102;20.614;2023-08-06T15:55:07;27.20;99.90
20442;DHT22;10380;52.102;20.614;2023-08-06T15:57:35;27.00;99.90
20442;DHT22;10380;52.102;20.614;2023-08-06T16:00:03;26.70;99.90
20442;DHT22;10380;52.102;20.614;2023-08-06T16:02:31;26.50;99.90